Observations at @or for Latest


KAST 231255Z AUTO 00000KT 2 1/2SM BR CLR 04/03 A3012 RMK AO2 SLP198 T00390033=
KAST 231306Z AUTO 00000KT 4SM BR CLR 04/04 A3012 RMK AO2 T00440039=
KBKE 231253Z AUTO 24003KT 10SM SCT042 BKN055 OVC100 03/01 A3006 RMK AO2 SLP185
 T00330006=
KBNO 231253Z AUTO 29006KT 10SM FEW070 SCT120 02/00 A3006 RMK AO2 SLP183
 T00170000=
KCVO 231256Z AUTO 00000KT 1SM BR OVC001 04/04 A3015 RMK AO2 SLP212 T00440044
 RVRNO=
KCVO 231314Z AUTO 27004KT 3/4SM BR OVC001 05/05 A3016 RMK AO2 RVRNO=
KCVO 231322Z AUTO 27005KT 1/2SM FG OVC001 05/05 A3016 RMK AO2 RVRNO=
KDLS 231253Z AUTO 00000KT 10SM BKN100 07/04 A3013 RMK AO2 SLP203 T00720039=
KEUG 231254Z 23005KT 3/4SM R16R/2000V2800FT BR BCFG BKN001 BKN036 BKN048 05/04
 A3014 RMK AO2 SLP208 FG BKN001 T00500039=
KEUG 231315Z 21003KT 5SM BR BCFG SCT001 BKN037 BKN048 05/04 A3015 RMK AO2 VIS
 SW-NW 1 FG SCT001 T00500039 $=
KHIO 231253Z 00000KT 3/4SM R13R/3500V4000FT BR VV002 07/07 A3014 RMK AO2 RAE14
 SLP205 P0000 T00670067=
KLGD 231256Z AUTO 33003KT 10SM OVC036 05/03 A3008 RMK AO2 SLP320 T00500028=
KLKV 231253Z AUTO 14008KT 10SM -RA SCT007 BKN015 OVC029 02/01 A3006 RMK AO2
 UPB21E31 SLP196 P0000 T00170011 FZRANO=
KLKV 231258Z AUTO 15008KT 10SM -RA BKN007 BKN015 OVC023 02/01 A3006 RMK AO2
 P0000 FZRANO=
KLKV 231302Z AUTO 15008KT 10SM -RA SCT007 BKN023 OVC030 02/01 A3006 RMK AO2
 P0000 FZRANO=
KLMT 231253Z AUTO 35004KT 10SM BKN018 OVC033 02/01 A3006 RMK AO2 RAE27 SLP181
 P0000 T00170006=
KMEH 231256Z AUTO 00000KT 10SM OVC015 02/00 A3007 RMK AO2 RAE03 SLP191 P0000
 T00170000=
KMFR 231253Z AUTO 00000KT 2SM RA BR BKN002 BKN010 OVC027 06/06 A3012 RMK AO2
 RAB29 SLP202 P0001 T00560056=
KMMV 231253Z AUTO 00000KT 1/4SM FG VV002 06/06 A3014 RMK AO2 SLP206 T00610061=
KMMV 231323Z AUTO 00000KT 1/4SM FG VV003 06/06 A3015 RMK AO2 T00610061=
KMMV 231253Z AUTO 00000KT 1/4SM FG VV002 06/06 A3014 RMK AO2 SLP206 T00610061=
KONO 231253Z AUTO 32003KT 10SM SCT060 BKN120 08/02 A3006 RMK AO2 SLP179
 T00780017 TSNO=
KONP 231255Z AUTO 12003KT 10SM SCT020 SCT026 07/06 A3016 RMK AO2 P0001=
KONP 231315Z AUTO 00000KT 10SM SCT021 07/06 A3016 RMK AO2=
KOTH 231256Z AUTO 16005KT 10SM SCT050 BKN080 OVC100 08/08 A3016 RMK AO2
 RAB19E52 SLP211 P0001 T00780078=
KPDT 231253Z 18005KT 10SM -RA FEW038 SCT046 OVC060 08/05 A3009 RMK AO2 RAB43
 SLP182 P0000 T00780050=
KPDX 231253Z 11007KT 10SM -RA SCT009 BKN019 OVC048 09/07 A3015 RMK AO2
 RAB28E45B50 SLP208 P0001 T00890072=
KRBG 231253Z AUTO 00000KT 1/2SM FG VV002 07/07 A3014 RMK AO2 SLP208 T00720067=
KRDM 231256Z 00000KT 10SM FEW037 SCT060 02/01 A3008 RMK AO2 SLP193 T00170006=
KREO 231252Z AUTO 09003KT 05/03 A3005 RMK AO1 SLP170 T00500028=
KSLE 231256Z AUTO 00000KT 1SM R31/P6000FT BR FEW055 07/06 A3013 RMK AO2 SLP205
 T00720061=
KSLE 231303Z AUTO 00000KT 1/2SM R31/P6000FT FG FEW055 06/05 A3014 RMK AO2
 T00560050=
KSLE 231314Z AUTO 00000KT 1/4SM R31/2400VP6000FT FG FEW003 SCT035 06/05 A3014
 RMK AO2 T00560050=
KSXT 231256Z AUTO 19004KT 1/4SM FG VV001 02/01 A3007 RMK AO2 SLP196 T00170011=
KTTD 231253Z AUTO 00000KT 10SM BKN023 OVC037 07/07 A3015 RMK AO2 RAB36E53
 SLP209 P0000 T00720067=
KTTD 231324Z AUTO 09003KT 10SM -RA SCT018 BKN050 OVC060 08/07 A3015 RMK AO2
 RAB06 P0000 T00780067=
KUAO 231253Z AUTO 00000KT 1/2SM FG BKN002 OVC043 07/07 A3015 RMK AO2 RAB23E34
 SLP209 P0000 T00670067=